Time;durP1;ratioP1;P1;durP2;ratioP2;P2;SDS_P1;SDS_P2;PMS_P1;PMS_P2;Temp;Humidity;BMP_temperature;BMP_pressure;BME280_temperature;BME280_humidity;BME280_pressure;Samples;Min_cycle;Max_cycle;Signal;HPM_P1;HPM_P2
2022/04/18 00:02:10;;;;;;;9.98;3.53;;;14.50;69.80;;;;;;5043464;28;20103;-79
2022/04/18 00:04:35;;;;;;;9.52;3.67;;;14.40;70.30;;;;;;5037949;28;20375;-79
2022/04/18 00:07:02;;;;;;;10.32;3.33;;;14.40;69.90;;;;;;5048903;28;20490;-78
2022/04/18 00:09:30;;;;;;;9.15;3.65;;;14.40;70.20;;;;;;5046709;28;20029;-79
2022/04/18 00:11:56;;;;;;;10.10;3.50;;;14.30;70.30;;;;;;5054061;28;20025;-78
2022/04/18 00:14:22;;;;;;;7.78;3.55;;;14.30;70.40;;;;;;5054683;28;20032;-78
2022/04/18 00:16:48;;;;;;;6.53;2.70;;;14.30;70.60;;;;;;5054659;28;20033;-78
2022/04/18 00:19:13;;;;;;;8.52;3.50;;;14.30;70.70;;;;;;5052557;28;20116;-78
2022/04/18 00:21:38;;;;;;;9.38;3.70;;;14.30;70.80;;;;;;5052147;28;20401;-77
2022/04/18 00:24:04;;;;;;;11.57;3.60;;;14.30;71.00;;;;;;5052529;28;20025;-78
2022/04/18 00:26:30;;;;;;;8.63;3.58;;;14.30;71.20;;;;;;5052484;28;20101;-78
2022/04/18 00:28:55;;;;;;;9.82;3.78;;;14.30;71.10;;;;;;5048951;28;20379;-79
2022/04/18 00:31:21;;;;;;;8.60;4.00;;;14.30;71.10;;;;;;5052290;28;20082;-78
2022/04/18 00:33:46;;;;;;;7.72;3.50;;;14.30;71.00;;;;;;5052350;28;20063;-77
2022/04/18 00:36:12;;;;;;;9.73;3.53;;;14.30;71.10;;;;;;5053390;28;20022;-78
2022/04/18 00:38:38;;;;;;;7.43;3.30;;;14.30;71.10;;;;;;5050163;28;20069;-77
2022/04/18 00:41:05;;;;;;;8.38;3.42;;;14.20;71.20;;;;;;5052099;28;20021;-78
2022/04/18 00:43:39;;;;;;;7.85;3.42;;;14.30;71.10;;;;;;5052458;28;20017;-78
2022/04/18 00:46:05;;;;;;;6.65;3.45;;;14.20;71.10;;;;;;5069392;28;20524;-78
2022/04/18 00:48:31;;;;;;;8.85;3.70;;;14.20;71.10;;;;;;5052833;28;20052;-79
2022/04/18 00:50:56;;;;;;;8.93;3.40;;;14.20;71.20;;;;;;5071158;28;20023;-78
2022/04/18 00:53:22;;;;;;;8.85;3.40;;;14.20;71.20;;;;;;5069438;28;20032;-78
2022/04/18 00:55:47;;;;;;;8.82;3.65;;;14.20;71.30;;;;;;5044469;28;20040;-78
2022/04/18 00:58:14;;;;;;;7.30;3.42;;;14.20;71.30;;;;;;5031585;28;20025;-79
2022/04/18 01:00:39;;;;;;;7.97;4.00;;;14.20;71.30;;;;;;5045291;28;20056;-78
2022/04/18 01:03:05;;;;;;;7.72;3.55;;;14.20;71.40;;;;;;5031835;28;20071;-77
2022/04/18 01:05:30;;;;;;;8.25;3.88;;;14.20;71.40;;;;;;5056663;28;20033;-77
2022/04/18 01:07:57;;;;;;;6.80;3.53;;;14.10;71.30;;;;;;5051854;28;20032;-78
2022/04/18 01:10:22;;;;;;;7.65;3.60;;;14.20;71.50;;;;;;5051901;28;20017;-78
2022/04/18 01:12:48;;;;;;;7.28;3.58;;;14.20;71.60;;;;;;5052371;28;20040;-78
2022/04/18 01:15:13;;;;;;;11.32;4.00;;;14.10;71.40;;;;;;5047971;28;20564;-77
2022/04/18 01:17:39;;;;;;;9.23;3.65;;;14.20;71.70;;;;;;5055331;28;20037;-77
2022/04/18 01:20:05;;;;;;;7.30;3.30;;;14.20;71.70;;;;;;5050963;28;20099;-78
2022/04/18 01:22:32;;;;;;;8.05;3.65;;;14.20;71.70;;;;;;5035691;28;20509;-79
2022/04/18 01:30:26;;;;;;;7.40;3.38;;;14.20;71.70;;;;;;5055401;28;20032;-77
2022/04/18 01:32:52;;;;;;;7.18;3.35;;;14.20;71.70;;;;;;5055097;28;20029;-78
2022/04/18 01:35:17;;;;;;;7.40;3.50;;;14.20;71.80;;;;;;5056511;28;20032;-78
2022/04/18 01:37:43;;;;;;;7.25;3.58;;;14.20;71.80;;;;;;5057035;28;20052;-78
2022/04/18 01:40:09;;;;;;;7.57;3.58;;;14.20;71.90;;;;;;5054815;28;20021;-77
2022/04/18 01:42:34;;;;;;;8.40;4.05;;;14.20;71.90;;;;;;5064928;28;20032;-78
2022/04/18 01:45:00;;;;;;;7.53;3.50;;;14.20;72.20;;;;;;5051705;28;20025;-78
2022/04/18 01:47:26;;;;;;;7.45;3.53;;;14.20;71.50;;;;;;5035021;28;20584;-78
2022/04/18 01:49:52;;;;;;;7.43;3.30;;;14.20;71.50;;;;;;5035865;28;20014;-78
2022/04/18 01:52:18;;;;;;;6.88;3.22;;;14.20;71.60;;;;;;5036612;28;20510;-79
2022/04/18 01:54:43;;;;;;;7.68;3.92;;;14.20;71.70;;;;;;5048788;28;20532;-78
2022/04/18 01:57:09;;;;;;;9.77;4.20;;;14.30;71.80;;;;;;5062819;28;20505;-78
2022/04/18 01:59:34;;;;;;;7.63;3.60;;;14.30;71.70;;;;;;5055813;28;20708;-78
2022/04/18 02:02:00;;;;;;;7.65;3.55;;;14.30;71.60;;;;;;5054454;28;20037;-77
2022/04/18 02:04:25;;;;;;;6.30;3.28;;;14.30;71.50;;;;;;5056055;28;20025;-77
2022/04/18 02:06:51;;;;;;;6.32;3.30;;;14.40;71.50;;;;;;5054658;28;20397;-80
2022/04/18 02:09:16;;;;;;;6.18;3.15;;;14.30;71.30;;;;;;5069018;28;20021;-79
2022/04/18 02:11:42;;;;;;;7.22;3.42;;;14.30;71.40;;;;;;5061457;28;20082;-79
2022/04/18 02:14:07;;;;;;;7.28;3.35;;;14.40;71.50;;;;;;5065070;28;20025;-79
2022/04/18 02:16:32;;;;;;;6.18;3.40;;;14.30;71.50;;;;;;5055827;28;20043;-78
2022/04/18 02:18:58;;;;;;;7.75;3.50;;;14.40;71.50;;;;;;5044162;28;20029;-78
2022/04/18 02:21:24;;;;;;;7.18;3.50;;;14.40;71.50;;;;;;5051229;28;20028;-78
2022/04/18 02:23:49;;;;;;;8.10;3.45;;;14.40;71.50;;;;;;5043738;28;20032;-77
2022/04/18 02:26:15;;;;;;;6.60;3.40;;;14.30;71.60;;;;;;5056749;28;20060;-80
2022/04/18 02:28:41;;;;;;;7.95;3.67;;;14.30;71.60;;;;;;5059145;28;20021;-79
2022/04/18 02:31:07;;;;;;;6.47;3.20;;;14.30;71.80;;;;;;5054880;28;20037;-79
2022/04/18 02:33:33;;;;;;;6.32;3.42;;;14.30;72.00;;;;;;5049345;28;20103;-78
2022/04/18 02:36:01;;;;;;;6.45;3.30;;;14.20;72.10;;;;;;5048543;28;20486;-79
2022/04/18 02:38:27;;;;;;;7.20;3.30;;;14.20;72.10;;;;;;5046630;28;20409;-79
2022/04/18 02:40:52;;;;;;;6.53;3.25;;;14.20;72.30;;;;;;5045124;28;20037;-79
2022/04/18 02:43:18;;;;;;;6.60;3.60;;;14.20;72.40;;;;;;5059006;28;20163;-78
2022/04/18 02:45:43;;;;;;;6.75;3.45;;;14.20;72.40;;;;;;5069511;28;20045;-77
2022/04/18 02:48:09;;;;;;;6.93;3.50;;;14.20;72.90;;;;;;5050217;28;20155;-79
2022/04/18 02:50:34;;;;;;;6.28;3.40;;;14.10;72.30;;;;;;5036569;28;20018;-79
2022/04/18 02:53:00;;;;;;;6.07;3.30;;;14.10;72.40;;;;;;5075630;28;20024;-78
2022/04/18 02:55:26;;;;;;;7.80;3.95;;;14.20;72.50;;;;;;5074667;28;20032;-78
2022/04/18 02:57:52;;;;;;;6.95;3.67;;;14.10;72.40;;;;;;5057833;28;20029;-79
2022/04/18 03:00:18;;;;;;;8.18;3.55;;;14.10;72.50;;;;;;5046527;28;20037;-78
2022/04/18 03:02:43;;;;;;;8.13;3.58;;;14.10;72.50;;;;;;5046814;28;20025;-79
2022/04/18 03:05:10;;;;;;;6.88;3.60;;;14.10;72.50;;;;;;5049015;28;20120;-79
2022/04/18 03:07:36;;;;;;;7.40;3.80;;;14.10;72.50;;;;;;5046081;28;20029;-79
2022/04/18 03:10:02;;;;;;;6.22;3.95;;;14.10;72.60;;;;;;5054366;28;20017;-78
2022/04/18 03:12:28;;;;;;;6.38;3.67;;;14.10;72.50;;;;;;5048598;28;20025;-80
2022/04/18 03:14:53;;;;;;;6.30;3.90;;;14.10;72.60;;;;;;5054893;28;20079;-78
2022/04/18 03:17:19;;;;;;;6.45;3.63;;;14.10;72.70;;;;;;5054481;28;20029;-78
2022/04/18 03:19:45;;;;;;;6.55;4.00;;;14.10;72.60;;;;;;5049793;28;20509;-78
2022/04/18 03:22:10;;;;;;;6.68;4.15;;;14.10;72.60;;;;;;5053940;28;20111;-78
2022/04/18 03:24:36;;;;;;;8.73;3.92;;;14.10;72.60;;;;;;5056036;28;20021;-78
2022/04/18 03:27:02;;;;;;;6.25;3.72;;;14.10;72.60;;;;;;5055103;28;20013;-78
2022/04/18 03:29:28;;;;;;;6.25;3.80;;;14.10;72.60;;;;;;5049102;28;20033;-77
2022/04/18 03:31:54;;;;;;;6.85;3.60;;;14.10;72.80;;;;;;5053914;28;20398;-77
2022/04/18 03:34:20;;;;;;;6.43;3.55;;;14.10;72.70;;;;;;5054114;28;20029;-78
2022/04/18 03:39:50;;;;;;;6.47;3.70;;;14.10;72.70;;;;;;5049572;28;20115;-78
2022/04/18 03:39:54;;;;;;;7.47;3.50;;;14.10;72.70;;;;;;5053947;28;20017;-78
2022/04/18 03:42:31;;;;;;;6.57;3.70;;;14.10;72.70;;;;;;5054312;28;20025;-78
2022/04/18 03:44:59;;;;;;;6.85;3.42;;;14.10;72.70;;;;;;5054291;28;20044;-78
2022/04/18 03:47:25;;;;;;;6.57;3.63;;;14.00;72.60;;;;;;5070433;28;20032;-79
2022/04/18 03:49:51;;;;;;;6.07;3.42;;;14.00;72.70;;;;;;5056704;28;20022;-78
2022/04/18 03:52:17;;;;;;;6.47;3.80;;;14.10;72.60;;;;;;5052659;28;20029;-78
2022/04/18 03:54:46;;;;;;;6.47;3.63;;;14.10;72.80;;;;;;5054011;28;20029;-78
2022/04/18 03:57:12;;;;;;;5.95;3.63;;;14.10;72.70;;;;;;5054004;28;20100;-78
2022/04/18 03:59:37;;;;;;;5.72;3.50;;;14.10;72.80;;;;;;5052905;28;20106;-78
2022/04/18 04:02:03;;;;;;;6.43;3.80;;;14.00;72.60;;;;;;5062335;28;20489;-80
2022/04/18 04:04:29;;;;;;;7.13;4.18;;;14.10;72.80;;;;;;5065123;28;20033;-78
2022/04/18 04:06:55;;;;;;;6.72;3.80;;;14.00;72.80;;;;;;5061288;28;20033;-76
2022/04/18 04:09:20;;;;;;;6.57;3.95;;;14.10;72.60;;;;;;5072075;28;20013;-78
2022/04/18 04:11:46;;;;;;;7.30;3.70;;;14.10;72.60;;;;;;5061021;28;20037;-78
2022/04/18 04:14:11;;;;;;;6.43;3.85;;;14.10;72.60;;;;;;5046752;28;20033;-78
2022/04/18 04:16:39;;;;;;;7.22;4.10;;;14.10;72.70;;;;;;5051340;28;20096;-79
2022/04/18 04:19:06;;;;;;;5.72;3.45;;;14.10;72.70;;;;;;5054636;28;20033;-80
2022/04/18 04:21:33;;;;;;;5.90;3.38;;;14.20;72.80;;;;;;5055005;28;20037;-77
2022/04/18 04:23:59;;;;;;;6.47;3.63;;;14.10;72.70;;;;;;5051224;28;20048;-80
2022/04/18 04:26:24;;;;;;;5.78;3.65;;;14.20;72.70;;;;;;5056374;28;20013;-78
2022/04/18 04:28:50;;;;;;;6.32;3.60;;;14.20;72.50;;;;;;5070352;28;20385;-79
2022/04/18 04:31:15;;;;;;;6.15;3.67;;;14.20;72.40;;;;;;5054158;28;20017;-78
2022/04/18 04:33:41;;;;;;;6.13;3.70;;;14.30;72.40;;;;;;5054245;28;20108;-79
2022/04/18 04:36:06;;;;;;;6.05;3.60;;;14.20;72.40;;;;;;5053761;28;20111;-79
2022/04/18 04:38:32;;;;;;;6.60;3.88;;;14.20;72.90;;;;;;5053795;28;20104;-79
2022/04/18 04:40:57;;;;;;;6.40;3.60;;;14.20;72.30;;;;;;5060969;28;20017;-77
2022/04/18 04:43:29;;;;;;;6.65;3.50;;;14.30;72.30;;;;;;5050982;28;20033;-78
2022/04/18 04:46:00;;;;;;;5.90;3.50;;;14.20;72.40;;;;;;5040340;28;20025;-78
2022/04/18 04:48:26;;;;;;;6.60;4.10;;;14.30;72.20;;;;;;5045135;28;20497;-78
2022/04/18 04:50:52;;;;;;;7.70;3.90;;;14.20;72.10;;;;;;5053358;28;20032;-79
2022/04/18 04:53:18;;;;;;;5.68;3.33;;;14.20;72.30;;;;;;5038678;28;20492;-79
2022/04/18 04:55:44;;;;;;;6.68;3.80;;;14.20;72.60;;;;;;5071350;28;20025;-79
2022/04/18 04:58:10;;;;;;;6.55;3.72;;;14.20;72.70;;;;;;5060294;28;20025;-78
2022/04/18 05:00:36;;;;;;;7.57;3.67;;;14.10;72.80;;;;;;5041225;28;20029;-79
2022/04/18 05:03:02;;;;;;;6.32;3.55;;;14.10;73.00;;;;;;5069890;28;20032;-78
2022/04/18 05:05:28;;;;;;;6.30;3.90;;;14.10;73.10;;;;;;5052758;28;20489;-78
2022/04/18 05:07:53;;;;;;;6.28;3.55;;;14.10;73.10;;;;;;5051544;28;20040;-79
2022/04/18 05:10:19;;;;;;;5.68;3.45;;;14.10;73.20;;;;;;5041793;28;20108;-79
2022/04/18 05:12:44;;;;;;;7.68;3.72;;;14.10;73.20;;;;;;5033249;28;20033;-78
2022/04/18 05:15:10;;;;;;;6.55;3.65;;;14.00;73.10;;;;;;5037809;28;20025;-78
2022/04/18 05:17:36;;;;;;;7.20;4.20;;;14.10;73.10;;;;;;5051553;28;20025;-78
2022/04/18 05:20:03;;;;;;;6.95;4.07;;;14.10;73.10;;;;;;5049020;28;20048;-79
2022/04/18 05:22:29;;;;;;;6.93;3.78;;;14.10;73.10;;;;;;5051888;28;20036;-78
2022/04/18 05:24:55;;;;;;;6.97;4.35;;;14.10;73.10;;;;;;5042144;28;20029;-78
2022/04/18 05:27:21;;;;;;;6.60;3.97;;;14.10;73.20;;;;;;5060593;28;20046;-78
2022/04/18 05:29:46;;;;;;;7.00;4.22;;;14.00;73.10;;;;;;5052206;28;20454;-80
2022/04/18 05:32:12;;;;;;;7.25;3.85;;;14.10;73.10;;;;;;5051982;28;20063;-78
2022/04/18 05:34:38;;;;;;;6.63;3.85;;;14.00;73.10;;;;;;5067278;28;20056;-79
2022/04/18 05:37:04;;;;;;;6.60;3.80;;;14.10;73.10;;;;;;5049411;28;20582;-80
2022/04/18 05:39:30;;;;;;;6.65;4.32;;;14.10;73.10;;;;;;5046296;28;20033;-79
2022/04/18 05:41:58;;;;;;;6.82;4.10;;;14.10;73.10;;;;;;5037000;28;20030;-79
2022/04/18 05:44:24;;;;;;;6.68;4.13;;;14.10;73.00;;;;;;5047381;28;20025;-81
2022/04/18 05:46:50;;;;;;;7.10;4.25;;;14.10;73.10;;;;;;5049579;28;20120;-77
2022/04/18 05:49:16;;;;;;;6.63;4.00;;;14.10;73.10;;;;;;5051002;28;20079;-78
2022/04/18 05:51:41;;;;;;;6.97;4.25;;;14.10;73.10;;;;;;5051155;28;20025;-76
2022/04/18 05:54:07;;;;;;;6.20;3.55;;;14.10;73.10;;;;;;5056416;28;20517;-81
2022/04/18 05:56:32;;;;;;;6.55;3.70;;;14.10;73.10;;;;;;5050305;28;20103;-79
2022/04/18 05:58:58;;;;;;;6.50;4.05;;;14.10;73.10;;;;;;5048820;28;20032;-78
2022/04/18 06:01:24;;;;;;;6.65;3.80;;;14.10;73.00;;;;;;5060817;28;20028;-78
2022/04/18 06:03:49;;;;;;;6.57;4.10;;;14.10;73.10;;;;;;5051286;28;20460;-79
2022/04/18 06:06:15;;;;;;;6.35;3.55;;;14.10;73.10;;;;;;5057991;28;20057;-79
2022/04/18 06:08:41;;;;;;;7.07;4.10;;;14.10;73.10;;;;;;5050968;28;20485;-79
2022/04/18 06:11:07;;;;;;;7.95;4.00;;;14.10;73.10;;;;;;5042212;28;20037;-79
2022/04/18 06:13:33;;;;;;;6.97;3.88;;;14.10;73.00;;;;;;5047513;28;20033;-79
2022/04/18 06:15:58;;;;;;;6.97;4.30;;;14.20;73.00;;;;;;5041605;28;20032;-78
2022/04/18 06:18:24;;;;;;;6.82;4.25;;;14.10;72.90;;;;;;5056491;28;20025;-79
2022/04/18 06:20:49;;;;;;;7.18;4.13;;;14.20;73.00;;;;;;5062810;28;20033;-79
2022/04/18 06:23:18;;;;;;;7.13;3.85;;;14.20;72.90;;;;;;5043554;28;20074;-79
2022/04/18 06:25:44;;;;;;;6.95;4.30;;;14.20;72.90;;;;;;5053163;28;20029;-79
2022/04/18 06:28:10;;;;;;;7.15;4.35;;;14.20;72.80;;;;;;5047089;28;20075;-79
2022/04/18 06:30:36;;;;;;;6.75;4.15;;;14.20;72.70;;;;;;5055794;28;20021;-79
2022/04/18 06:33:01;;;;;;;6.38;3.85;;;14.20;72.60;;;;;;5054879;28;20137;-79
2022/04/18 06:35:27;;;;;;;5.93;3.70;;;14.20;72.60;;;;;;5085076;28;20024;-79
2022/04/18 06:37:52;;;;;;;6.30;3.90;;;14.30;72.60;;;;;;5055836;28;20028;-80
2022/04/18 06:40:18;;;;;;;6.70;4.13;;;14.30;72.50;;;;;;5057979;28;20032;-78
2022/04/18 06:42:44;;;;;;;6.32;3.92;;;14.30;72.50;;;;;;5045838;28;20057;-80
2022/04/18 06:45:09;;;;;;;6.55;3.95;;;14.30;72.40;;;;;;5051259;28;20017;-80
2022/04/18 06:47:35;;;;;;;6.25;3.88;;;14.40;72.30;;;;;;5055212;28;20028;-80
2022/04/18 06:50:00;;;;;;;7.47;4.20;;;14.40;72.30;;;;;;5052965;28;20033;-79
2022/04/18 06:52:26;;;;;;;5.95;3.83;;;14.40;72.20;;;;;;5056654;28;20421;-77
2022/04/18 06:54:51;;;;;;;6.30;4.32;;;14.40;72.10;;;;;;5050788;28;20482;-78
2022/04/18 06:57:17;;;;;;;6.38;4.18;;;14.50;72.10;;;;;;5052486;28;20033;-78
2022/04/18 06:59:43;;;;;;;6.35;3.72;;;14.50;72.00;;;;;;5052181;28;20028;-79
2022/04/18 07:02:08;;;;;;;7.13;3.97;;;14.60;71.90;;;;;;5058395;28;20086;-78
2022/04/18 07:04:34;;;;;;;7.10;4.20;;;14.60;71.80;;;;;;5031779;28;20052;-79
2022/04/18 07:07:00;;;;;;;7.65;3.97;;;14.60;71.70;;;;;;5036769;28;20031;-79
2022/04/18 07:09:26;;;;;;;5.93;3.83;;;14.60;71.60;;;;;;5050835;28;20048;-79
2022/04/18 07:11:51;;;;;;;6.88;3.90;;;14.70;71.60;;;;;;5052019;28;20053;-80
2022/04/18 07:14:17;;;;;;;6.47;4.00;;;14.70;71.50;;;;;;5052728;28;20379;-79
2022/04/18 07:16:43;;;;;;;5.70;3.40;;;14.70;71.40;;;;;;5051534;28;20056;-80
2022/04/18 07:19:09;;;;;;;6.97;4.05;;;14.80;71.40;;;;;;5050636;28;20021;-78
2022/04/18 07:21:35;;;;;;;7.90;3.90;;;14.70;71.40;;;;;;5058193;28;20389;-78
2022/04/18 07:24:01;;;;;;;6.95;4.07;;;14.70;71.90;;;;;;5073318;28;20527;-78
2022/04/18 07:26:26;;;;;;;6.75;4.05;;;14.70;71.40;;;;;;5073977;28;20020;-76
2022/04/18 07:28:53;;;;;;;6.82;4.22;;;14.70;71.50;;;;;;5063038;28;20082;-77
2022/04/18 07:31:18;;;;;;;6.50;4.20;;;14.70;71.50;;;;;;5052501;28;20103;-78
2022/04/18 07:33:44;;;;;;;6.25;3.67;;;14.70;71.50;;;;;;5058063;28;20101;-78
2022/04/18 07:36:09;;;;;;;6.10;3.53;;;14.70;71.50;;;;;;5066961;28;20025;-81
2022/04/18 07:38:50;;;;;;;6.65;4.32;;;14.70;71.60;;;;;;5054839;28;20017;-78
2022/04/18 07:41:17;;;;;;;6.40;3.70;;;14.70;71.70;;;;;;5040583;28;20033;-78
2022/04/18 07:43:42;;;;;;;6.13;4.05;;;14.70;71.80;;;;;;5040430;28;20024;-78
2022/04/18 07:46:08;;;;;;;7.03;4.05;;;14.70;71.90;;;;;;5053659;28;20386;-79
2022/04/18 07:48:34;;;;;;;5.90;3.83;;;14.70;71.90;;;;;;5060170;28;20025;-77
2022/04/18 07:53:45;;;;;;;6.65;4.10;;;14.80;71.90;;;;;;5050198;28;20027;-78
2022/04/18 07:56:11;;;;;;;6.20;3.80;;;14.80;71.80;;;;;;5053660;28;20384;-79
2022/04/18 07:58:36;;;;;;;6.10;4.15;;;14.80;71.70;;;;;;5052034;28;20051;-77
2022/04/18 08:01:02;;;;;;;6.57;4.05;;;14.80;71.70;;;;;;5052465;28;20481;-78
2022/04/18 08:03:28;;;;;;;6.72;4.03;;;14.80;71.60;;;;;;5053176;28;20087;-78
2022/04/18 08:05:57;;;;;;;6.50;4.10;;;14.80;71.60;;;;;;5052810;28;20025;-78
2022/04/18 08:08:23;;;;;;;7.40;4.43;;;14.80;71.50;;;;;;5055484;28;20111;-78
2022/04/18 08:10:48;;;;;;;6.88;4.03;;;14.90;71.50;;;;;;5063518;28;20075;-78
2022/04/18 08:13:14;;;;;;;6.57;3.97;;;14.90;71.50;;;;;;5051073;28;20075;-77
2022/04/18 08:15:40;;;;;;;7.22;4.07;;;14.90;71.40;;;;;;5053185;28;20090;-79
2022/04/18 08:18:05;;;;;;;6.72;4.22;;;14.90;71.40;;;;;;5046471;28;20425;-78
2022/04/18 08:20:31;;;;;;;7.15;4.43;;;14.90;71.40;;;;;;5038687;28;20028;-79
2022/04/18 08:22:56;;;;;;;7.53;4.57;;;14.90;71.40;;;;;;5053379;28;20528;-78
2022/04/18 08:25:22;;;;;;;7.80;4.30;;;15.00;71.30;;;;;;5051858;28;20389;-79
2022/04/18 08:27:48;;;;;;;7.65;5.25;;;15.00;70.90;;;;;;5044088;28;20378;-78
2022/04/18 08:30:13;;;;;;;10.07;5.32;;;15.00;70.70;;;;;;5035665;28;20062;-79
2022/04/18 08:32:43;;;;;;;16.65;5.60;;;15.00;69.90;;;;;;5051390;28;20033;-79
2022/04/18 08:35:09;;;;;;;16.88;5.20;;;15.00;69.60;;;;;;5050762;28;20017;-77
2022/04/18 08:37:36;;;;;;;14.00;5.55;;;15.00;69.40;;;;;;5040447;28;20028;-78
2022/04/18 08:40:14;;;;;;;12.88;5.75;;;15.00;69.40;;;;;;5049146;28;20060;-77
2022/04/18 08:42:41;;;;;;;13.95;5.72;;;15.10;69.40;;;;;;5043487;28;20040;-78
2022/04/18 08:45:10;;;;;;;16.73;6.15;;;15.10;69.50;;;;;;5053021;28;20038;-75
2022/04/18 08:53:09;;;;;;;12.82;5.82;;;15.10;69.70;;;;;;5052828;28;20222;-76
2022/04/18 08:55:36;;;;;;;10.68;5.75;;;15.20;69.70;;;;;;5050697;28;20025;-77
2022/04/18 08:58:01;;;;;;;10.43;5.68;;;15.20;69.80;;;;;;5047775;28;20116;-76
2022/04/18 09:00:27;;;;;;;17.35;6.25;;;15.20;69.80;;;;;;5051857;28;20162;-78
2022/04/18 09:02:56;;;;;;;10.65;5.30;;;15.20;69.90;;;;;;5052109;28;20100;-79
2022/04/18 09:05:22;;;;;;;11.32;6.07;;;15.20;70.00;;;;;;5050839;28;20090;-77
2022/04/18 09:08:01;;;;;;;11.80;5.47;;;15.20;70.00;;;;;;5049189;28;20507;-77
2022/04/18 09:10:28;;;;;;;10.85;5.70;;;15.20;70.00;;;;;;5044671;28;20108;-79
2022/04/18 09:13:01;;;;;;;11.18;5.90;;;15.30;70.10;;;;;;5060635;28;20044;-79
2022/04/18 09:15:46;;;;;;;12.18;5.75;;;15.30;70.10;;;;;;5052883;28;20029;-80
2022/04/18 09:18:15;;;;;;;12.00;6.20;;;15.30;70.10;;;;;;5049834;28;20049;-79
2022/04/18 09:20:42;;;;;;;11.63;5.85;;;15.30;69.90;;;;;;5052348;28;20393;-79
2022/04/18 09:23:22;;;;;;;10.75;6.15;;;15.40;69.90;;;;;;5052267;28;20021;-81
2022/04/18 09:26:03;;;;;;;12.75;6.53;;;15.40;69.80;;;;;;5050595;28;20029;-80
2022/04/18 09:28:34;;;;;;;9.50;6.53;;;15.40;69.70;;;;;;5044061;28;20037;-80
2022/04/18 09:31:01;;;;;;;;;;;15.50;69.70;;;;;;5049819;28;20028;-78
2022/04/18 09:33:29;;;;;;;11.88;5.93;;;15.50;69.60;;;;;;5034989;28;20332;-79
2022/04/18 09:36:09;;;;;;;10.00;5.65;;;15.50;69.60;;;;;;5034669;28;20084;-78
2022/04/18 09:38:40;;;;;;;8.65;5.43;;;15.50;69.60;;;;;;5034848;28;20060;-79
2022/04/18 09:41:07;;;;;;;8.98;5.57;;;15.60;69.60;;;;;;5055454;28;20532;-78
2022/04/18 09:43:38;;;;;;;8.55;5.70;;;15.50;69.60;;;;;;5049656;28;20052;-80
2022/04/18 09:46:04;;;;;;;11.82;6.25;;;15.50;69.60;;;;;;5049123;28;20027;-80
2022/04/18 09:48:33;;;;;;;10.40;6.10;;;15.50;69.60;;;;;;5045265;28;20111;-78
2022/04/18 09:50:59;;;;;;;8.63;5.43;;;15.50;69.70;;;;;;5050650;28;20071;-77
2022/04/18 09:53:26;;;;;;;9.70;5.50;;;15.50;69.70;;;;;;5059643;28;20385;-77
2022/04/18 09:55:54;;;;;;;10.32;6.13;;;15.60;69.70;;;;;;5059184;28;20033;-76
2022/04/18 09:58:21;;;;;;;10.50;5.50;;;15.60;69.70;;;;;;5069138;28;20021;-78
2022/04/18 10:00:48;;;;;;;10.40;5.60;;;15.60;69.90;;;;;;5055220;28;20116;-78
2022/04/18 10:03:14;;;;;;;9.95;5.65;;;15.50;70.00;;;;;;5057272;28;20121;-82
2022/04/18 10:05:40;;;;;;;9.50;5.78;;;15.50;70.10;;;;;;5059560;28;20108;-80
2022/04/18 10:08:06;;;;;;;9.30;5.28;;;15.40;70.10;;;;;;5058525;28;20037;-77
2022/04/18 10:10:34;;;;;;;11.55;5.60;;;15.50;70.20;;;;;;5055998;28;20083;-78
2022/04/18 10:12:59;;;;;;;12.23;5.50;;;15.50;70.10;;;;;;5033804;28;20029;-77
2022/04/18 10:15:27;;;;;;;15.07;5.72;;;15.50;69.90;;;;;;5034289;28;20030;-76
2022/04/18 10:17:53;;;;;;;13.93;5.68;;;15.50;70.40;;;;;;5050780;28;20025;-78
2022/04/18 10:20:37;;;;;;;13.88;5.55;;;15.50;69.90;;;;;;5039729;28;20030;-77
2022/04/18 10:23:28;;;;;;;14.55;5.88;;;15.50;69.90;;;;;;5034532;28;20036;-78
2022/04/18 10:26:26;;;;;;;11.40;4.88;;;15.50;69.90;;;;;;5034411;28;20056;-78
2022/04/18 10:28:54;;;;;;;9.13;5.00;;;15.50;70.00;;;;;;5035268;28;20029;-78
2022/04/18 10:31:25;;;;;;;10.65;5.28;;;15.40;70.00;;;;;;5051244;28;20021;-77
2022/04/18 10:33:51;;;;;;;;;;;15.50;70.10;;;;;;5034774;28;20029;-78
2022/04/18 10:36:33;;;;;;;12.13;5.43;;;15.40;70.10;;;;;;5046016;28;19904;-77
2022/04/18 10:39:04;;;;;;;10.05;5.32;;;15.50;70.20;;;;;;5054651;28;20025;-78
2022/04/18 10:41:36;;;;;;;9.80;4.88;;;15.50;70.30;;;;;;5054978;28;20100;-77
2022/04/18 10:44:09;;;;;;;8.60;4.55;;;15.50;70.20;;;;;;5054723;28;20048;-78
2022/04/18 10:46:39;;;;;;;8.43;4.65;;;15.50;70.30;;;;;;5065191;28;20028;-78
2022/04/18 10:49:16;;;;;;;11.38;5.03;;;15.50;70.30;;;;;;5042889;28;20029;-78
2022/04/18 10:51:44;;;;;;;7.82;4.97;;;15.50;70.30;;;;;;5038994;28;20017;-75
2022/04/18 10:54:15;;;;;;;9.75;4.65;;;15.50;70.40;;;;;;5052021;28;20033;-77
2022/04/18 10:57:01;;;;;;;12.07;5.43;;;15.50;70.40;;;;;;5049172;28;20181;-77
2022/04/18 10:59:30;;;;;;;9.05;4.97;;;15.50;70.40;;;;;;5058139;28;20287;-78
2022/04/18 11:01:58;;;;;;;12.20;4.93;;;15.50;70.50;;;;;;5042444;28;20486;-77
2022/04/18 11:04:32;;;;;;;8.65;4.80;;;15.50;70.50;;;;;;5034760;28;20021;-77
2022/04/18 11:07:01;;;;;;;10.68;4.53;;;15.50;70.50;;;;;;5048110;28;20390;-77
2022/04/18 11:09:28;;;;;;;9.02;5.00;;;15.70;70.60;;;;;;5053291;28;20032;-78
2022/04/18 11:11:55;;;;;;;12.32;5.03;;;15.50;70.50;;;;;;5060742;28;20444;-76
2022/04/18 11:14:25;;;;;;;7.25;4.32;;;15.60;70.60;;;;;;5051077;28;20017;-76
2022/04/18 11:16:58;;;;;;;8.23;4.35;;;15.50;70.60;;;;;;5043281;28;20086;-77
2022/04/18 11:19:32;;;;;;;8.98;4.82;;;15.50;70.60;;;;;;5054662;28;20044;-80
2022/04/18 11:21:58;;;;;;;8.27;4.38;;;15.50;70.60;;;;;;5053273;28;20091;-78
2022/04/18 11:24:54;;;;;;;8.55;4.45;;;15.50;70.70;;;;;;5051083;28;20501;-78
2022/04/18 11:27:21;;;;;;;9.15;4.97;;;15.50;70.70;;;;;;5053105;28;20032;-78
2022/04/18 11:30:01;;;;;;;7.40;4.13;;;15.50;70.70;;;;;;5052567;28;20036;-79
2022/04/18 11:32:29;;;;;;;13.05;5.00;;;15.50;70.80;;;;;;5037410;28;20086;-77
2022/04/18 11:34:57;;;;;;;10.80;5.13;;;15.50;70.20;;;;;;5047938;28;20033;-77
2022/04/18 11:37:33;;;;;;;10.32;4.20;;;15.50;70.20;;;;;;5039260;28;20037;-78
2022/04/18 11:40:04;;;;;;;10.27;4.60;;;15.50;70.20;;;;;;5052503;28;20025;-77
2022/04/18 11:42:31;;;;;;;9.60;4.82;;;15.50;70.20;;;;;;5033566;28;20491;-78
2022/04/18 11:44:59;;;;;;;9.63;4.65;;;15.50;70.20;;;;;;5032310;28;20602;-78
2022/04/18 11:47:28;;;;;;;7.65;4.10;;;15.60;70.20;;;;;;5038282;28;20028;-77
2022/04/18 11:49:55;;;;;;;9.93;4.75;;;15.60;70.10;;;;;;5042369;28;20028;-79
2022/04/18 11:52:26;;;;;;;10.98;4.30;;;15.70;70.10;;;;;;5038649;28;20028;-79
2022/04/18 11:55:17;;;;;;;8.73;4.30;;;15.70;70.00;;;;;;5049312;28;20022;-78
2022/04/18 11:57:47;;;;;;;10.85;4.13;;;15.70;69.90;;;;;;5045518;28;20065;-78
2022/04/18 12:06:44;;;;;;;14.75;4.65;;;15.70;69.90;;;;;;5064220;28;20131;-77
2022/04/18 12:08:35;;;;;;;20.23;5.15;;;15.70;69.70;;;;;;5047145;28;20036;-78
2022/04/18 12:11:00;;;;;;;18.73;4.93;;;15.70;69.70;;;;;;5052158;28;20409;-79
2022/04/18 12:13:26;;;;;;;14.40;4.15;;;15.70;69.70;;;;;;5052117;28;20040;-77
2022/04/18 12:15:51;;;;;;;14.60;4.10;;;15.70;69.80;;;;;;5052238;28;20129;-78
2022/04/18 12:18:18;;;;;;;12.15;4.10;;;15.70;69.90;;;;;;5053138;28;20028;-78
2022/04/18 12:20:47;;;;;;;12.93;4.20;;;15.70;69.80;;;;;;5063012;28;20025;-79
2022/04/18 12:23:39;;;;;;;12.65;4.53;;;15.60;69.90;;;;;;5053807;28;20024;-79
2022/04/18 12:26:11;;;;;;;10.32;4.05;;;15.60;70.20;;;;;;5036381;28;20040;-79
2022/04/18 12:28:38;;;;;;;12.10;4.15;;;15.60;70.90;;;;;;5052100;28;20021;-80
2022/04/18 12:31:09;;;;;;;10.35;4.10;;;15.50;70.50;;;;;;5042273;28;20025;-80
2022/04/18 12:33:47;;;;;;;11.88;3.70;;;15.50;70.80;;;;;;5034784;28;20032;-79
2022/04/18 12:36:33;;;;;;;10.93;4.00;;;15.50;70.90;;;;;;5058534;28;20572;-79
2022/04/18 12:39:00;;;;;;;15.38;4.30;;;15.40;71.00;;;;;;5047692;28;20033;-79
2022/04/18 12:41:34;;;;;;;9.88;4.05;;;15.40;71.20;;;;;;5046091;28;20426;-79
2022/04/18 12:44:01;;;;;;;14.43;4.22;;;15.40;71.30;;;;;;5053643;28;20021;-80
2022/04/18 12:46:33;;;;;;;13.07;4.05;;;15.40;71.30;;;;;;5046326;28;20056;-81
2022/04/18 12:49:05;;;;;;;8.93;3.85;;;15.40;71.40;;;;;;5051851;28;20033;-79
2022/04/18 12:51:33;;;;;;;14.93;3.83;;;15.40;71.40;;;;;;5038645;28;20022;-77
2022/04/18 12:53:59;;;;;;;11.20;3.90;;;15.40;71.40;;;;;;5040155;28;20036;-80
2022/04/18 12:56:27;;;;;;;9.82;4.18;;;15.40;71.40;;;;;;5052525;28;20025;-80
2022/04/18 12:59:01;;;;;;;11.20;3.90;;;15.40;71.50;;;;;;5055572;28;20025;-79
2022/04/18 13:01:35;;;;;;;11.05;3.90;;;15.30;71.50;;;;;;5050624;28;20048;-80
2022/04/18 13:04:05;;;;;;;8.43;4.20;;;15.40;71.60;;;;;;5051203;28;20048;-79
2022/04/18 13:06:34;;;;;;;9.73;4.07;;;15.30;71.60;;;;;;5052492;28;20025;-79
2022/04/18 13:09:08;;;;;;;10.13;3.55;;;15.30;71.70;;;;;;5046206;28;20028;-79